createdAt,value
2022-10-31T00:01:06.447Z,58.88
2022-10-31T00:06:19.149Z,58.76
2022-10-31T00:11:22.551Z,58.82
2022-10-31T00:16:26.058Z,58.61
2022-10-31T00:21:29.471Z,58.60
2022-10-31T00:26:32.893Z,58.48
2022-10-31T00:31:36.333Z,58.49
2022-10-31T00:36:39.756Z,58.41
2022-10-31T00:41:43.137Z,58.25
2022-10-31T00:46:46.573Z,58.12
2022-10-31T00:51:50.339Z,58.04
2022-10-31T00:56:53.775Z,57.77
2022-10-31T01:01:57.227Z,57.70
2022-10-31T01:07:00.763Z,57.64
2022-10-31T01:12:06.157Z,57.45
2022-10-31T01:17:09.707Z,57.43
2022-10-31T01:22:13.208Z,57.19
2022-10-31T01:27:16.580Z,57.12
2022-10-31T01:32:20.065Z,57.12
2022-10-31T01:37:23.434Z,57.10
2022-10-31T01:42:26.981Z,57.14
2022-10-31T01:47:30.358Z,57.08
2022-10-31T01:52:33.717Z,56.96
2022-10-31T01:57:37.101Z,56.97
2022-10-31T02:02:40.664Z,57.04
2022-10-31T02:07:44.314Z,56.93
2022-10-31T02:12:47.796Z,56.68
2022-10-31T02:17:51.148Z,56.73
2022-10-31T02:22:54.528Z,56.80
2022-10-31T02:27:58.141Z,56.49
2022-10-31T02:33:02.141Z,56.45
2022-10-31T02:38:05.919Z,56.53
2022-10-31T02:43:09.310Z,56.34
2022-10-31T02:48:12.709Z,56.40
2022-10-31T02:53:16.091Z,56.27
2022-10-31T03:03:27.722Z,56.10
2022-10-31T03:08:31.072Z,56.08
2022-10-31T03:13:34.465Z,55.93
2022-10-31T03:18:38.023Z,55.94
2022-10-31T03:23:41.466Z,55.76
2022-10-31T03:28:44.829Z,55.76
2022-10-31T03:33:48.189Z,55.61
2022-10-31T03:38:51.555Z,55.61
2022-10-31T03:43:54.992Z,55.71
2022-10-31T03:48:58.337Z,55.40
2022-10-31T03:54:01.724Z,55.36
2022-10-31T03:59:05.088Z,55.35
2022-10-31T04:04:08.471Z,55.18
2022-10-31T04:09:11.819Z,55.10
2022-10-31T04:14:17.213Z,54.98
2022-10-31T04:19:21.181Z,54.98
2022-10-31T04:24:24.564Z,54.90
2022-10-31T04:29:28.012Z,54.88
2022-10-31T04:34:31.417Z,54.94
2022-10-31T04:39:34.760Z,54.99
2022-10-31T04:44:38.122Z,54.86
2022-10-31T04:49:41.483Z,54.87
2022-10-31T04:54:44.833Z,54.62
2022-10-31T04:59:48.317Z,54.44
2022-10-31T05:04:51.692Z,54.55
2022-10-31T05:09:55.186Z,54.53
2022-10-31T05:14:58.584Z,54.41
2022-10-31T05:20:02.003Z,54.31
2022-10-31T05:25:05.402Z,54.24
2022-10-31T05:30:08.862Z,54.30
2022-10-31T05:35:12.313Z,54.08
2022-10-31T05:40:15.648Z,53.99
2022-10-31T05:45:19.004Z,53.94
2022-10-31T05:50:22.381Z,53.93
2022-10-31T05:55:26.691Z,53.91
2022-10-31T06:00:30.064Z,53.91
2022-10-31T06:05:33.427Z,54.07
2022-10-31T06:10:37.354Z,53.93
2022-10-31T06:15:40.732Z,53.99
2022-10-31T06:20:44.135Z,54.02
2022-10-31T06:25:47.546Z,54.06
2022-10-31T06:30:50.920Z,54.12
2022-10-31T06:35:54.408Z,54.33
2022-10-31T06:40:57.772Z,54.33
2022-10-31T06:46:01.230Z,54.31
2022-10-31T06:51:04.739Z,54.36
2022-10-31T06:56:08.117Z,54.27
2022-10-31T07:01:11.623Z,54.57
2022-10-31T07:06:23.529Z,54.84
2022-10-31T07:11:27.005Z,54.93
2022-10-31T07:16:30.513Z,54.99
2022-10-31T07:21:33.882Z,53.46
2022-10-31T07:26:37.414Z,51.98
2022-10-31T07:31:40.879Z,54.91
2022-10-31T07:36:44.282Z,55.76
2022-10-31T07:41:47.669Z,55.69
2022-10-31T07:46:51.091Z,56.28
2022-10-31T07:51:54.524Z,56.13
2022-10-31T07:56:57.879Z,56.81
2022-10-31T08:02:01.470Z,57.21
2022-10-31T08:07:04.852Z,60.77
2022-10-31T08:12:08.218Z,58.79
2022-10-31T08:17:11.577Z,55.08
2022-10-31T08:22:16.990Z,54.38
2022-10-31T08:27:20.374Z,55.23
2022-10-31T08:32:23.757Z,58.35
2022-10-31T08:37:27.121Z,58.56
2022-10-31T08:42:30.485Z,58.54
2022-10-31T08:47:33.852Z,58.33
2022-10-31T08:52:59.266Z,58.19
2022-10-31T08:58:01.134Z,58.00
2022-10-31T09:03:04.828Z,58.06
2022-10-31T09:08:13.096Z,58.55
2022-10-31T09:13:20.448Z,61.22
2022-10-31T09:18:23.966Z,59.99
2022-10-31T09:23:27.314Z,60.89
2022-10-31T09:28:30.718Z,60.50
2022-10-31T09:33:34.197Z,60.64
2022-10-31T09:38:37.559Z,60.75
2022-10-31T09:43:41.117Z,60.46
2022-10-31T09:48:44.742Z,60.51
2022-10-31T09:53:48.142Z,60.52
2022-10-31T09:58:51.518Z,60.59
2022-10-31T10:03:54.868Z,60.66
2022-10-31T10:08:58.235Z,60.46
2022-10-31T10:14:01.617Z,60.67
2022-10-31T10:19:04.996Z,60.63
2022-10-31T10:24:08.475Z,60.59
2022-10-31T10:29:11.846Z,60.23
2022-10-31T10:34:15.309Z,60.48
2022-10-31T10:39:18.660Z,60.55
2022-10-31T10:44:22.022Z,60.29
2022-10-31T10:49:25.390Z,60.10
2022-10-31T10:54:28.860Z,60.35
2022-10-31T10:59:32.289Z,59.72
2022-10-31T11:04:35.643Z,59.85
2022-10-31T11:09:39.008Z,60.12
2022-10-31T11:14:42.365Z,60.08
2022-10-31T11:19:45.832Z,60.22
2022-10-31T11:24:49.282Z,60.40
2022-10-31T11:29:55.697Z,60.38
2022-10-31T11:35:03.375Z,60.33
2022-10-31T11:40:06.780Z,60.39
2022-10-31T11:45:10.188Z,60.75
2022-10-31T11:50:13.542Z,60.47
2022-10-31T11:55:16.961Z,60.55
2022-10-31T12:00:20.443Z,60.71
2022-10-31T12:05:24.071Z,60.69
2022-10-31T12:10:27.464Z,60.84
2022-10-31T12:15:30.832Z,60.87
2022-10-31T12:20:34.181Z,60.95
2022-10-31T12:25:37.543Z,60.78
2022-10-31T12:30:40.915Z,60.86
2022-10-31T12:35:44.434Z,61.17
2022-10-31T12:40:47.808Z,61.30
2022-10-31T12:45:51.504Z,61.03
2022-10-31T12:50:54.861Z,61.16
2022-10-31T12:55:58.359Z,61.28
2022-10-31T13:01:01.799Z,61.41
2022-10-31T13:06:05.595Z,61.14
2022-10-31T13:11:09.004Z,61.05
2022-10-31T13:16:12.406Z,61.25
2022-10-31T13:21:15.825Z,61.30
2022-10-31T13:26:19.186Z,61.50
2022-10-31T13:31:22.663Z,62.65
2022-10-31T13:36:26.129Z,62.71
2022-10-31T13:41:32.203Z,62.91
2022-10-31T13:46:35.670Z,62.77
2022-10-31T13:51:40.134Z,62.03
2022-10-31T13:56:43.488Z,61.68
2022-10-31T14:01:47.286Z,61.61
2022-10-31T14:06:50.808Z,62.13
2022-10-31T14:11:54.501Z,63.31
2022-10-31T14:16:58.320Z,63.38
2022-10-31T14:22:01.694Z,63.53
2022-10-31T14:27:05.119Z,63.64
2022-10-31T14:32:12.273Z,63.54
2022-10-31T14:37:16.729Z,64.33
2022-10-31T14:42:20.335Z,64.35
2022-10-31T14:47:23.716Z,64.35
2022-10-31T14:52:27.077Z,64.12
2022-10-31T14:57:30.725Z,64.24
2022-10-31T15:02:35.762Z,63.89
2022-10-31T15:07:41.095Z,63.44
2022-10-31T15:12:44.517Z,63.10
2022-10-31T15:17:50.209Z,63.48
2022-10-31T15:22:53.744Z,63.80
2022-10-31T15:27:57.174Z,64.37
2022-10-31T15:33:00.599Z,64.50
2022-10-31T15:38:05.288Z,64.84
2022-10-31T15:43:08.949Z,65.07
2022-10-31T15:48:12.346Z,64.14
2022-10-31T15:53:15.773Z,64.03
2022-10-31T15:58:19.274Z,63.90
2022-10-31T16:03:22.720Z,64.28
2022-10-31T16:08:26.289Z,64.73
2022-10-31T16:13:29.701Z,64.84
2022-10-31T16:18:33.087Z,64.87
2022-10-31T16:23:36.506Z,64.44
2022-10-31T16:28:40.372Z,64.29
2022-10-31T16:33:45.017Z,64.23
2022-10-31T16:38:48.407Z,64.13
2022-10-31T16:43:52.615Z,63.33
2022-10-31T16:48:56.202Z,63.66
2022-10-31T16:53:59.637Z,63.72
2022-10-31T16:59:03.060Z,63.94
2022-10-31T17:04:06.428Z,64.50
2022-10-31T17:09:09.797Z,64.21
2022-10-31T17:14:13.172Z,64.31
2022-10-31T17:19:16.692Z,64.35
2022-10-31T17:24:20.311Z,64.19
2022-10-31T17:29:23.711Z,64.03
2022-10-31T17:34:27.179Z,64.01
2022-10-31T17:39:30.704Z,63.55
2022-10-31T17:44:34.137Z,63.22
2022-10-31T17:49:37.525Z,63.63
2022-10-31T17:54:40.951Z,63.69
2022-10-31T17:59:44.328Z,63.08
2022-10-31T18:04:47.764Z,63.21
2022-10-31T18:09:51.305Z,63.35
2022-10-31T18:14:54.739Z,63.41
2022-10-31T18:19:58.137Z,63.36
2022-10-31T18:25:02.283Z,63.33
2022-10-31T18:30:06.224Z,63.13
2022-10-31T18:35:09.648Z,63.14
2022-10-31T18:40:13.313Z,63.11
2022-10-31T18:45:32.643Z,62.87
2022-10-31T18:50:40.110Z,62.62
2022-10-31T18:55:47.245Z,62.34
2022-10-31T19:00:53.597Z,61.98
2022-10-31T19:05:57.674Z,61.94
2022-10-31T19:11:01.120Z,62.09
2022-10-31T19:16:04.766Z,61.87
2022-10-31T19:21:08.225Z,61.98
2022-10-31T19:26:11.728Z,63.11
2022-10-31T19:31:15.140Z,63.23
2022-10-31T19:36:19.164Z,63.17
2022-10-31T19:41:22.602Z,63.08
2022-10-31T19:46:52.402Z,63.05
2022-10-31T19:51:49.493Z,62.94
2022-10-31T19:56:52.912Z,62.82
2022-10-31T20:01:56.405Z,62.77
2022-10-31T20:06:59.788Z,62.77
2022-10-31T20:12:03.282Z,62.71
2022-10-31T20:17:06.692Z,62.67
2022-10-31T20:22:11.000Z,62.57
2022-10-31T20:27:14.694Z,62.20
2022-10-31T20:32:18.091Z,62.55
2022-10-31T20:37:21.588Z,62.32
2022-10-31T20:42:25.095Z,62.06
2022-10-31T20:47:28.477Z,61.43
2022-10-31T20:52:31.868Z,61.86
2022-10-31T20:57:35.227Z,61.91
2022-10-31T21:02:38.823Z,62.00
2022-10-31T21:07:42.354Z,61.98
2022-10-31T21:12:45.780Z,61.82
2022-10-31T21:17:49.212Z,61.40
2022-10-31T21:22:54.611Z,61.26
2022-10-31T21:27:58.237Z,61.29
2022-10-31T21:33:01.789Z,61.84
2022-10-31T21:38:05.147Z,61.72
2022-10-31T21:43:08.638Z,61.70
2022-10-31T21:48:12.024Z,61.65
2022-10-31T21:53:33.288Z,61.44
2022-10-31T21:58:38.562Z,61.43
2022-10-31T22:03:42.224Z,61.21
2022-10-31T22:08:45.690Z,61.22
2022-10-31T22:13:49.131Z,60.66
2022-10-31T22:18:52.885Z,60.75
2022-10-31T22:23:56.257Z,60.26
2022-10-31T22:29:01.247Z,60.71
2022-10-31T22:34:04.631Z,60.92
2022-10-31T22:39:08.013Z,60.75
2022-10-31T22:44:11.379Z,60.71
2022-10-31T22:49:15.248Z,60.50
2022-10-31T22:54:18.819Z,60.46
2022-10-31T22:59:22.215Z,60.28
2022-10-31T23:04:25.603Z,60.34
2022-10-31T23:09:30.069Z,60.27
2022-10-31T23:14:33.508Z,60.13
2022-10-31T23:19:36.893Z,60.13
2022-10-31T23:24:40.262Z,59.96
2022-10-31T23:29:44.299Z,60.02
2022-10-31T23:34:47.699Z,59.75
2022-10-31T23:39:51.062Z,59.74
2022-10-31T23:44:54.458Z,59.65
2022-10-31T23:49:58.001Z,59.42
2022-10-31T23:55:01.380Z,59.49
